Time;durP1;ratioP1;P1;durP2;ratioP2;P2;SDS_P1;SDS_P2;PMS_P1;PMS_P2;Temp;Humidity;BMP_temperature;BMP_pressure;BME280_temperature;BME280_humidity;BME280_pressure;Samples;Min_cycle;Max_cycle;Signal;HPM_P1;HPM_P2
2022/10/18 00:01:35;;;;;;;4.30;3.90;;;;;;;10.88;100.00;97308.66;5028902;28;105806;-63
2022/10/18 00:04:02;;;;;;;4.63;3.60;;;;;;;10.85;100.00;97301.13;5029445;28;101977;-63
2022/10/18 00:06:39;;;;;;;5.30;3.50;;;;;;;10.92;100.00;97301.03;5029363;28;105726;-63
2022/10/18 00:09:07;;;;;;;5.13;3.67;;;;;;;10.85;100.00;97300.34;5032137;28;105391;-63
2022/10/18 00:11:34;;;;;;;4.47;3.47;;;;;;;10.72;100.00;97295.22;5028992;28;105913;-63
2022/10/18 00:14:02;;;;;;;3.90;3.60;;;;;;;10.49;100.00;97300.47;5028640;28;105318;-63
2022/10/18 00:16:30;;;;;;;3.77;3.37;;;;;;;10.35;100.00;97291.09;5029300;28;101972;-63
2022/10/18 00:18:56;;;;;;;3.83;3.43;;;;;;;10.33;100.00;97291.31;5029310;28;104781;-63
2022/10/18 00:21:31;;;;;;;4.10;3.70;;;;;;;10.46;100.00;97287.66;5028474;28;105634;-63
2022/10/18 00:23:58;;;;;;;4.20;3.80;;;;;;;10.42;100.00;97291.81;5029084;28;101942;-63
2022/10/18 00:26:31;;;;;;;5.43;3.80;;;;;;;10.27;100.00;97291.41;5029150;28;105051;-63
2022/10/18 00:29:01;;;;;;;4.93;4.07;;;;;;;10.22;100.00;97296.59;5028498;28;105132;-63
2022/10/18 00:31:33;;;;;;;6.63;4.00;;;;;;;10.30;100.00;97301.59;5032637;28;102001;-63
2022/10/18 00:34:02;;;;;;;5.97;3.90;;;;;;;10.16;100.00;97298.31;5028352;28;105948;-63
2022/10/18 00:36:50;;;;;;;5.23;3.67;;;;;;;10.22;100.00;97293.91;5030232;28;101994;-63
2022/10/18 00:39:21;;;;;;;4.00;3.60;;;;;;;10.19;100.00;97299.72;5028911;28;105163;-63
2022/10/18 00:41:49;;;;;;;4.97;3.80;;;;;;;10.20;100.00;97288.03;5028278;28;105271;-63
2022/10/18 00:44:53;;;;;;;4.43;4.00;;;;;;;10.27;100.00;97288.75;5028696;28;101928;-63
2022/10/18 00:47:35;;;;;;;5.73;3.93;;;;;;;10.27;100.00;97297.53;5028789;28;104072;-63
2022/10/18 00:50:05;;;;;;;6.80;4.20;;;;;;;10.29;100.00;97290.13;5028282;28;105707;-63
2022/10/18 00:52:37;;;;;;;7.10;4.30;;;;;;;10.24;100.00;97289.22;5028668;28;101938;-63
2022/10/18 00:55:06;;;;;;;5.67;3.97;;;;;;;10.38;100.00;97293.28;5033982;28;105146;-63
2022/10/18 00:57:41;;;;;;;5.03;3.83;;;;;;;10.33;100.00;97279.84;5031775;28;101955;-63
2022/10/18 01:00:09;;;;;;;7.00;3.83;;;;;;;10.31;100.00;97281.94;5033868;28;102773;-63
2022/10/18 01:02:40;;;;;;;4.13;3.77;;;;;;;10.28;100.00;97283.19;5031765;28;105111;-63
2022/10/18 01:05:10;;;;;;;6.00;4.20;;;;;;;10.13;100.00;97290.78;5033306;28;102004;-63
2022/10/18 01:08:12;;;;;;;4.30;3.90;;;;;;;10.15;100.00;97278.06;5032120;28;105384;-63
2022/10/18 01:10:50;;;;;;;6.03;4.13;;;;;;;9.96;100.00;97278.28;5031106;28;105545;-63
2022/10/18 01:13:42;;;;;;;4.13;3.60;;;;;;;10.01;100.00;97281.91;5033790;28;102003;-63
2022/10/18 01:16:18;;;;;;;5.60;3.77;;;;;;;10.01;100.00;97281.09;5031988;28;105023;-63
2022/10/18 01:18:53;;;;;;;4.70;3.70;;;;;;;9.91;100.00;97280.81;5036114;28;103459;-63
2022/10/18 01:21:35;;;;;;;5.17;3.50;;;;;;;9.84;100.00;97277.44;5033646;28;102852;-63
2022/10/18 01:24:37;;;;;;;5.70;3.67;;;;;;;9.79;100.00;97282.59;5032776;27;103119;-63
2022/10/18 01:27:26;;;;;;;4.30;3.23;;;;;;;9.76;100.00;97280.41;5033506;28;101647;-63
2022/10/18 01:30:08;;;;;;;4.60;3.53;;;;;;;9.67;100.00;97276.44;5031808;28;105473;-63
2022/10/18 01:32:41;;;;;;;6.23;3.50;;;;;;;9.80;100.00;97284.22;5033009;28;102641;-62
2022/10/18 01:35:14;;;;;;;9.33;4.03;;;;;;;9.72;100.00;97285.38;5033351;28;101779;-63
2022/10/18 01:37:52;;;;;;;6.73;4.37;;;;;;;9.73;100.00;97288.81;5031811;28;105341;-63
2022/10/18 01:40:22;;;;;;;4.30;3.90;;;;;;;9.79;100.00;97287.91;5032584;28;102653;-63
2022/10/18 01:42:50;;;;;;;4.60;4.20;;;;;;;9.86;100.00;97289.47;5036423;28;101769;-63
2022/10/18 01:45:19;;;;;;;5.70;3.67;;;;;;;9.85;100.00;97287.03;5032218;27;103292;-63
2022/10/18 01:48:20;;;;;;;4.97;3.67;;;;;;;9.90;100.00;97290.66;5031247;28;101898;-63
2022/10/18 01:50:55;;;;;;;6.80;4.27;;;;;;;9.90;100.00;97276.53;5031534;28;105249;-63
2022/10/18 01:53:25;;;;;;;4.57;4.17;;;;;;;9.84;100.00;97280.91;5030838;28;105011;-63
2022/10/18 01:56:18;;;;;;;4.33;3.80;;;;;;;9.87;100.00;97283.13;5031412;28;101910;-63
2022/10/18 01:58:55;;;;;;;4.00;3.60;;;;;;;9.84;100.00;97280.91;5031400;28;105474;-63
2022/10/18 02:01:32;;;;;;;4.17;3.33;;;;;;;9.69;100.00;97277.00;5030741;28;105178;-63
2022/10/18 02:04:15;;;;;;;4.90;3.83;;;;;;;9.87;100.00;97275.13;5031172;28;101862;-63
2022/10/18 02:06:46;;;;;;;4.03;3.73;;;;;;;9.67;100.00;97277.25;5032790;27;104430;-63
2022/10/18 02:09:18;;;;;;;5.40;3.97;;;;;;;9.57;100.00;97278.78;5031138;28;101759;-63
2022/10/18 02:11:48;;;;;;;4.20;3.70;;;;;;;9.46;100.00;97279.53;5030968;28;104282;-63
2022/10/18 02:14:20;;;;;;;4.47;3.33;;;;;;;9.38;100.00;97282.50;5030426;28;106708;-63
2022/10/18 02:16:51;;;;;;;6.07;3.80;;;;;;;9.41;100.00;97284.69;5031385;28;101789;-63
2022/10/18 02:19:26;;;;;;;3.90;3.50;;;;;;;9.54;100.00;97289.88;5031152;28;105223;-63
2022/10/18 02:21:55;;;;;;;3.50;3.20;;;;;;;9.58;100.00;97283.06;5030356;28;105397;-63
2022/10/18 02:24:26;;;;;;;5.00;3.90;;;;;;;9.62;100.00;97287.72;5032176;28;101771;-63
2022/10/18 02:26:57;;;;;;;4.30;3.80;;;;;;;9.61;100.00;97293.25;5033811;28;105085;-63
2022/10/18 02:29:25;;;;;;;4.50;3.93;;;;;;;9.46;100.00;97295.47;5030923;28;101889;-63
2022/10/18 02:31:59;;;;;;;5.80;3.77;;;;;;;9.49;100.00;97292.38;5030862;28;105308;-63
2022/10/18 02:34:33;;;;;;;6.20;3.90;;;;;;;9.56;100.00;97290.44;5031943;28;103253;-63
2022/10/18 02:37:11;;;;;;;5.37;3.67;;;;;;;9.61;100.00;97290.59;5030759;28;101923;-63
2022/10/18 02:39:43;;;;;;;4.90;4.40;;;;;;;9.61;100.00;97288.78;5030715;28;105202;-63
2022/10/18 02:42:12;;;;;;;4.10;3.70;;;;;;;9.51;100.00;97295.63;5030144;28;105506;-63
2022/10/18 02:44:40;;;;;;;4.33;3.80;;;;;;;9.44;100.00;97284.25;5030674;28;101962;-63
2022/10/18 02:47:10;;;;;;;5.43;3.80;;;;;;;9.18;100.00;97297.81;5030549;28;104043;-63
2022/10/18 02:49:39;;;;;;;4.23;3.50;;;;;;;9.09;100.00;97293.81;5034798;28;102792;-63
2022/10/18 02:52:40;;;;;;;4.23;3.87;;;;;;;9.11;100.00;97295.22;5030355;28;104190;-63
2022/10/18 02:55:08;;;;;;;5.43;4.03;;;;;;;9.25;100.00;97298.53;5030924;28;103095;-63
2022/10/18 02:57:58;;;;;;;9.27;4.37;;;;;;;9.23;100.00;97295.31;5030449;28;101849;-63
2022/10/18 03:00:25;;;;;;;4.77;3.87;;;;;;;9.22;100.00;97302.44;5030322;28;104007;-63
2022/10/18 03:02:52;;;;;;;5.70;4.00;;;;;;;9.27;100.00;97302.59;5029962;28;104244;-63
2022/10/18 03:05:21;;;;;;;4.17;3.77;;;;;;;9.33;100.00;97311.53;5030371;28;102150;-63
2022/10/18 03:07:49;;;;;;;7.13;4.53;;;;;;;9.22;100.00;97313.06;5031751;28;102391;-63
2022/10/18 03:10:16;;;;;;;5.17;4.07;;;;;;;9.24;100.00;97304.88;5029753;27;104361;-63
2022/10/18 03:12:43;;;;;;;5.13;4.63;;;;;;;9.22;100.00;97301.66;5033618;28;101946;-63
2022/10/18 03:15:11;;;;;;;12.53;5.57;;;;;;;9.29;100.00;97307.69;5030930;28;102592;-63
2022/10/18 03:17:58;;;;;;;5.83;4.70;;;;;;;9.32;100.00;97304.63;5031131;27;101988;-63
2022/10/18 03:20:26;;;;;;;5.20;4.70;;;;;;;9.22;100.00;97301.66;5031746;27;102405;-63
2022/10/18 03:22:53;;;;;;;8.17;4.00;;;;;;;9.27;100.00;97296.50;5029567;28;105804;-63
2022/10/18 03:25:20;;;;;;;4.30;3.90;;;;;;;9.30;100.00;97301.34;5029784;28;102025;-63
2022/10/18 03:27:51;;;;;;;4.43;3.90;;;;;;;9.32;100.00;97296.66;5030027;28;103850;-63
2022/10/18 03:30:18;;;;;;;5.07;4.07;;;;;;;9.28;100.00;97290.16;5029402;28;105650;-63
2022/10/18 03:32:46;;;;;;;4.67;4.00;;;;;;;9.26;100.00;97295.69;5029872;28;101925;-63
2022/10/18 03:35:13;;;;;;;5.37;4.20;;;;;;;9.20;100.00;97303.69;5032739;28;105801;-63
2022/10/18 03:37:44;;;;;;;7.07;4.67;;;;;;;9.15;100.00;97304.38;5031255;28;101858;-63
2022/10/18 03:40:11;;;;;;;5.40;4.63;;;;;;;9.21;100.00;97306.13;5031298;28;103059;-63
2022/10/18 03:42:39;;;;;;;4.33;3.93;;;;;;;9.21;100.00;97306.13;5029100;28;105906;-63
2022/10/18 03:45:07;;;;;;;5.17;4.00;;;;;;;9.10;100.00;97306.06;5029427;28;101963;-63
2022/10/18 03:47:52;;;;;;;4.43;4.03;;;;;;;9.13;100.00;97302.94;5029902;28;104997;-63
2022/10/18 03:50:19;;;;;;;3.93;3.63;;;;;;;8.84;100.00;97314.25;5029078;28;105285;-63
2022/10/18 03:52:48;;;;;;;6.03;4.57;;;;;;;8.95;100.00;97316.97;5029538;28;102171;-63
2022/10/18 03:55:15;;;;;;;7.40;4.33;;;;;;;9.07;100.00;97315.28;5029190;28;105473;-63
2022/10/18 03:57:46;;;;;;;6.13;5.00;;;;;;;9.11;100.00;97305.81;5032425;28;105108;-63
2022/10/18 04:00:14;;;;;;;6.43;4.43;;;;;;;9.13;100.00;97297.66;5031367;28;102265;-63
2022/10/18 04:02:41;;;;;;;5.83;4.53;;;;;;;9.14;100.00;97288.66;5028949;28;105303;-63
2022/10/18 04:05:09;;;;;;;5.67;4.67;;;;;;;9.16;100.00;97291.91;5029360;28;101947;-63
2022/10/18 04:07:37;;;;;;;10.13;4.43;;;;;;;9.15;100.00;97291.09;5029406;28;105539;-63
2022/10/18 04:10:07;;;;;;;6.83;4.13;;;;;;;8.93;100.00;97289.06;5028497;28;105527;-63
2022/10/18 04:12:34;;;;;;;8.27;4.80;;;;;;;8.84;100.00;97293.81;5029353;28;101808;-63
2022/10/18 04:15:01;;;;;;;6.07;4.43;;;;;;;8.90;100.00;97287.66;5029205;28;105042;-63
2022/10/18 04:17:34;;;;;;;7.70;4.60;;;;;;;8.90;100.00;97286.84;5030083;28;103231;-63
2022/10/18 04:20:02;;;;;;;5.50;5.00;;;;;;;8.87;100.00;97288.09;5032853;28;101763;-63
2022/10/18 04:22:31;;;;;;;9.33;4.83;;;;;;;8.92;100.00;97288.25;5028591;28;103749;-63
2022/10/18 04:24:58;;;;;;;9.17;5.80;;;;;;;8.82;100.00;97300.38;5029072;28;101901;-63
2022/10/18 04:28:00;;;;;;;6.07;5.40;;;;;;;8.92;100.00;97303.34;5028987;28;105195;-63
2022/10/18 04:30:28;;;;;;;6.67;5.33;;;;;;;8.92;100.00;97303.34;5028202;28;105031;-63
2022/10/18 04:32:55;;;;;;;5.60;4.97;;;;;;;8.98;100.00;97298.00;5029087;28;101907;-63
2022/10/18 04:35:24;;;;;;;5.20;4.70;;;;;;;8.96;100.00;97297.41;5028983;28;103996;-63
2022/10/18 04:38:24;;;;;;;7.80;4.80;;;;;;;8.91;100.00;97301.72;5028322;28;105457;-63
2022/10/18 04:40:51;;;;;;;6.33;4.80;;;;;;;8.86;100.00;97297.09;5032323;28;101868;-63
2022/10/18 04:43:21;;;;;;;6.93;4.87;;;;;;;8.77;100.00;97303.69;5028349;28;105240;-63
2022/10/18 04:45:52;;;;;;;5.60;4.83;;;;;;;8.82;100.00;97300.38;5028822;28;102008;-63
2022/10/18 04:48:20;;;;;;;6.50;4.90;;;;;;;8.79;100.00;97300.81;5028894;28;104896;-62
2022/10/18 04:51:30;;;;;;;5.73;4.37;;;;;;;8.83;100.00;97302.03;5028308;28;105045;-63
2022/10/18 04:53:57;;;;;;;6.23;4.87;;;;;;;8.82;100.00;97316.28;5028343;28;101816;-63
2022/10/18 04:56:25;;;;;;;5.23;4.73;;;;;;;8.81;100.00;97314.66;5028709;28;104895;-63
2022/10/18 04:58:54;;;;;;;8.03;5.27;;;;;;;8.83;100.00;97317.94;5027879;28;105787;-63
2022/10/18 05:01:21;;;;;;;7.03;5.10;;;;;;;8.79;100.00;97317.53;5028674;28;101853;-63
2022/10/18 05:03:52;;;;;;;6.30;4.87;;;;;;;8.80;100.00;97321.00;5033002;28;102304;-63
2022/10/18 05:06:21;;;;;;;6.37;4.97;;;;;;;8.84;100.00;97320.34;5028537;28;101873;-62
2022/10/18 05:08:50;;;;;;;9.33;5.30;;;;;;;8.87;100.00;97327.06;5028904;28;106012;-63
2022/10/18 05:11:17;;;;;;;6.57;4.77;;;;;;;8.81;100.00;97325.28;5027493;28;105719;-63
2022/10/18 05:13:44;;;;;;;5.60;5.00;;;;;;;8.76;100.00;97325.09;5028478;28;101930;-63
2022/10/18 05:16:24;;;;;;;6.37;5.40;;;;;;;8.87;100.00;97324.41;5028415;28;104993;-63
2022/10/18 05:18:51;;;;;;;5.40;4.80;;;;;;;8.89;100.00;97319.72;5027858;28;104032;-63
2022/10/18 05:21:26;;;;;;;6.47;5.10;;;;;;;8.84;100.00;97324.84;5028515;28;101851;-63
2022/10/18 05:23:55;;;;;;;8.70;5.87;;;;;;;8.86;100.00;97325.44;5029957;28;102504;-63
2022/10/18 05:26:53;;;;;;;5.63;4.57;;;;;;;8.90;100.00;97335.41;5031051;28;105643;-63
2022/10/18 05:29:21;;;;;;;8.70;5.77;;;;;;;8.85;100.00;97345.03;5028408;28;105799;-63
2022/10/18 05:31:51;;;;;;;10.27;5.93;;;;;;;8.89;100.00;97359.50;5027752;28;105907;-63
2022/10/18 05:34:19;;;;;;;6.60;5.23;;;;;;;8.86;100.00;97359.91;5028242;28;101915;-63
2022/10/18 05:36:50;;;;;;;7.57;6.00;;;;;;;8.85;100.00;97353.00;5028226;28;105037;-63
2022/10/18 05:39:17;;;;;;;7.70;5.30;;;;;;;8.87;100.00;97359.72;5027493;28;105199;-63
2022/10/18 05:41:44;;;;;;;6.20;5.43;;;;;;;8.96;100.00;97354.94;5031439;28;101935;-63
2022/10/18 05:44:11;;;;;;;6.57;5.43;;;;;;;9.07;100.00;97363.03;5033039;28;102772;-63
2022/10/18 05:50:03;;;;;;;6.60;5.10;;;;;;;9.28;100.00;97353.84;5034807;28;102118;-63
2022/10/18 05:52:39;;;;;;;7.67;5.27;;;;;;;9.34;100.00;97356.47;5030846;28;105844;-63
2022/10/18 05:55:06;;;;;;;7.37;4.60;;;;;;;9.36;100.00;97356.22;5032551;28;101795;-63
2022/10/18 05:57:37;;;;;;;8.13;4.83;;;;;;;9.41;100.00;97351.06;5031500;28;104826;-63
2022/10/18 06:00:05;;;;;;;8.27;4.37;;;;;;;9.45;100.00;97361.03;5031049;28;104237;-63
2022/10/18 06:02:38;;;;;;;5.20;4.10;;;;;;;9.48;100.00;97344.66;5029631;27;101703;-63
2022/10/18 06:05:08;;;;;;;7.40;4.63;;;;;;;9.53;100.00;97347.47;5031289;28;105153;-63
2022/10/18 06:10:57;;;;;;;6.30;4.40;;;;;;;9.68;100.00;97353.22;5032360;27;101861;-63
2022/10/18 06:13:24;;;;;;;5.63;4.10;;;;;;;9.90;100.00;97349.09;5034018;28;103779;-63
2022/10/18 06:15:56;;;;;;;4.90;4.27;;;;;;;10.02;100.00;97341.16;5031268;28;101869;-63
2022/10/18 06:18:24;;;;;;;6.87;3.80;;;;;;;10.16;100.00;97340.00;5031339;28;105652;-63
2022/10/18 06:21:01;;;;;;;4.00;3.60;;;;;;;10.28;100.00;97339.03;5030378;28;105082;-63
2022/10/18 06:23:29;;;;;;;4.93;3.87;;;;;;;10.47;100.00;97335.28;5030797;28;101923;-63
2022/10/18 06:25:59;;;;;;;5.73;4.00;;;;;;;10.71;100.00;97341.47;5030951;28;105442;-63
2022/10/18 06:28:27;;;;;;;5.37;3.80;;;;;;;10.87;100.00;97338.16;5031921;28;102655;-63
2022/10/18 06:30:54;;;;;;;4.13;3.73;;;;;;;11.11;100.00;97335.28;5030866;28;101880;-62
2022/10/18 06:33:21;;;;;;;4.10;3.67;;;;;;;11.29;100.00;97345.03;5029593;28;105456;-64
2022/10/18 06:36:12;;;;;;;4.20;3.80;;;;;;;11.48;100.00;97338.53;5033535;27;102145;-64
2022/10/18 06:38:40;;;;;;;3.87;3.37;;;;;;;11.60;100.00;97337.50;5030620;28;104914;-65
2022/10/18 06:41:08;;;;;;;4.43;3.53;;;;;;;11.75;100.00;97339.69;5030059;28;105000;-65
2022/10/18 06:43:35;;;;;;;4.13;3.73;;;;;;;11.82;100.00;97345.72;5030730;28;101979;-65
2022/10/18 06:46:18;;;;;;;5.50;4.03;;;;;;;11.76;100.00;97354.63;5030355;28;105008;-65
2022/10/18 06:48:46;;;;;;;6.27;3.57;;;;;;;12.00;100.00;97340.22;5030382;28;103681;-64
2022/10/18 06:51:18;;;;;;;6.20;3.70;;;;;;;12.11;100.00;97344.72;5029710;27;101912;-64
2022/10/18 06:53:46;;;;;;;5.90;3.60;;;;;;;12.26;100.00;97364.50;5030149;28;105259;-65
2022/10/18 06:56:14;;;;;;;4.53;3.77;;;;;;;12.31;100.00;97355.78;5033430;28;105879;-63
2022/10/18 06:58:41;;;;;;;6.00;3.43;;;;;;;12.31;100.00;97358.47;5030527;28;105455;-62
2022/10/18 07:01:10;;;;;;;6.07;3.63;;;;;;;12.41;100.00;97355.97;5029785;28;105133;-64
2022/10/18 07:03:36;;;;;;;4.87;3.77;;;;;;;12.62;100.00;97349.97;5030222;28;101943;-64
2022/10/18 07:06:08;;;;;;;4.63;4.10;;;;;;;12.59;100.00;97359.25;5030327;28;105287;-64
2022/10/18 07:08:38;;;;;;;5.27;3.77;;;;;;;12.86;100.00;97344.25;5029680;28;104975;-64
2022/10/18 07:11:06;;;;;;;5.03;3.47;;;;;;;13.19;100.00;97343.50;5029872;28;101864;-65
2022/10/18 07:13:34;;;;;;;4.07;3.47;;;;;;;13.34;100.00;97339.19;5031643;28;102833;-63
2022/10/18 07:16:16;;;;;;;7.67;3.97;;;;;;;13.48;100.00;97342.34;5029862;28;105380;-68
2022/10/18 07:18:45;;;;;;;6.03;3.50;;;;;;;13.64;100.00;97346.84;5033649;28;101877;-64
2022/10/18 07:21:16;;;;;;;7.00;3.60;;;;;;;13.87;100.00;97349.31;5030704;28;103195;-64
2022/10/18 07:23:46;;;;;;;8.10;3.33;;;;;;;14.03;100.00;97349.25;5030089;28;102057;-64
2022/10/18 07:26:17;;;;;;;3.77;3.10;;;;;;;14.15;100.00;97349.94;5031240;28;102365;-64
2022/10/18 07:28:45;;;;;;;4.07;3.40;;;;;;;14.39;100.00;97345.97;5029383;28;105845;-64
2022/10/18 07:31:13;;;;;;;6.17;2.93;;;;;;;14.69;100.00;97342.78;5031546;28;101879;-64
2022/10/18 07:33:41;;;;;;;4.97;3.07;;;;;;;14.82;100.00;97337.06;5029943;28;104834;-64
2022/10/18 07:36:27;;;;;;;4.63;3.33;;;;;;;15.17;100.00;97338.16;5029164;28;105240;-64
2022/10/18 07:38:56;;;;;;;4.30;3.20;;;;;;;15.24;100.00;97343.28;5029767;28;101998;-63
2022/10/18 07:41:23;;;;;;;8.93;3.70;;;;;;;15.05;100.00;97345.53;5032672;28;105202;-64
2022/10/18 07:43:52;;;;;;;3.87;3.50;;;;;;;15.26;100.00;97336.59;5029816;28;102177;-64
2022/10/18 07:46:21;;;;;;;5.67;3.60;;;;;;;15.19;100.00;97340.56;5029741;28;105441;-64
2022/10/18 07:48:48;;;;;;;4.00;3.27;;;;;;;15.32;100.00;97351.66;5029335;28;105300;-64
2022/10/18 07:51:34;;;;;;;4.73;3.40;;;;;;;15.40;100.00;97348.56;5029461;28;102127;-61
2022/10/18 07:54:03;;;;;;;3.70;3.07;;;;;;;15.44;100.00;97349.66;5029164;28;105200;-62
2022/10/18 07:56:31;;;;;;;10.57;3.80;;;;;;;15.59;100.00;97351.63;5028892;28;105371;-60
2022/10/18 07:58:58;;;;;;;7.33;3.10;;;;;;;15.67;100.00;97356.50;5029519;28;102213;-61
2022/10/18 08:01:25;;;;;;;6.07;3.17;;;;;;;15.62;100.00;97349.25;5030952;28;102881;-61
2022/10/18 08:03:53;;;;;;;7.57;3.17;;;;;;;15.57;100.00;97348.38;5032087;27;105456;-61
2022/10/18 08:06:24;;;;;;;4.17;2.67;;;;;;;15.53;100.00;97347.31;5029183;28;103602;-61
2022/10/18 08:08:51;;;;;;;3.20;2.90;;;;;;;15.63;100.00;97350.03;5028780;28;105151;-62
2022/10/18 08:11:22;;;;;;;4.20;2.80;;;;;;;15.66;100.00;97346.84;5029080;28;102032;-61
2022/10/18 08:13:53;;;;;;;3.43;2.63;;;;;;;15.73;100.00;97342.06;5030890;28;102985;-61
2022/10/18 08:16:31;;;;;;;3.57;2.67;;;;;;;15.77;100.00;97343.16;5030201;28;102663;-61
2022/10/18 08:18:58;;;;;;;3.10;2.80;;;;;;;15.79;100.00;97344.50;5030816;27;101803;-61
2022/10/18 08:21:44;;;;;;;4.90;2.80;;;;;;;15.89;100.00;97349.94;5029253;28;105271;-61
2022/10/18 08:24:11;;;;;;;3.60;2.77;;;;;;;15.86;100.00;97347.75;5029824;27;102623;-59
2022/10/18 08:26:49;;;;;;;4.73;2.83;;;;;;;15.95;100.00;97346.22;5032359;28;101956;-64
2022/10/18 08:29:16;;;;;;;3.73;2.53;;;;;;;16.05;100.00;97351.63;5030044;28;102884;-62
2022/10/18 08:31:43;;;;;;;3.90;2.70;;;;;;;16.15;100.00;97340.13;5030504;27;101863;-62
2022/10/18 08:34:10;;;;;;;4.73;2.63;;;;;;;16.28;100.00;97345.81;5028799;28;103536;-62
2022/10/18 08:36:52;;;;;;;4.93;3.03;;;;;;;16.32;100.00;97346.91;5029180;28;102920;-61
2022/10/18 08:39:19;;;;;;;3.60;2.73;;;;;;;16.55;100.00;97348.34;5030121;28;102248;-63
2022/10/18 08:42:07;;;;;;;5.63;2.83;;;;;;;16.49;100.00;97347.53;5028428;28;105022;-62
2022/10/18 08:44:44;;;;;;;3.33;2.87;;;;;;;16.57;100.00;97351.59;5025239;28;105334;-62
2022/10/18 08:47:19;;;;;;;3.30;3.00;;;;;;;16.59;100.00;97355.63;5031367;28;102210;-62
2022/10/18 08:49:50;;;;;;;3.97;2.97;;;;;;;16.75;100.00;97351.09;5029376;28;102461;-62
2022/10/18 08:52:26;;;;;;;3.97;2.90;;;;;;;16.89;100.00;97354.88;5028373;28;102252;-61
2022/10/18 08:55:12;;;;;;;3.17;2.80;;;;;;;16.98;100.00;97346.03;5029448;28;102848;-60
2022/10/18 08:57:50;;;;;;;6.10;3.00;;;;;;;17.00;100.00;97348.44;4930816;28;105645;-60
2022/10/18 09:00:20;;;;;;;7.13;3.17;;;;;;;16.94;100.00;97347.63;4931599;28;102209;-61
2022/10/18 09:03:00;;;;;;;4.10;3.63;;;;;;;16.96;100.00;97348.16;4947710;28;105404;-60
2022/10/18 09:05:36;;;;;;;5.67;3.07;;;;;;;17.09;100.00;97352.19;4947171;28;106191;-61
2022/10/18 09:08:23;;;;;;;4.33;3.50;;;;;;;17.05;100.00;97346.56;4931352;28;102096;-60
2022/10/18 09:11:00;;;;;;;5.60;3.00;;;;;;;17.11;100.00;97339.31;4933878;28;103949;-60
2022/10/18 09:13:57;;;;;;;3.87;2.90;;;;;;;17.29;100.00;97336.91;4931527;28;102151;-62
2022/10/18 09:16:50;;;;;;;3.20;2.90;;;;;;;17.53;100.00;97347.91;4949176;28;102571;-60
2022/10/18 09:19:28;;;;;;;4.10;3.10;;;;;;;17.81;100.00;97336.56;4950777;28;105170;-62
2022/10/18 09:22:02;;;;;;;4.83;3.07;;;;;;;18.01;100.00;97334.66;4934951;28;102131;-60
2022/10/18 09:24:38;;;;;;;4.03;2.90;;;;;;;18.22;100.00;97340.75;4951109;28;105151;-60
2022/10/18 09:27:15;;;;;;;4.27;2.43;;;;;;;18.44;100.00;97343.94;4950429;28;105417;-66
2022/10/18 09:29:58;;;;;;;2.83;2.53;;;;;;;18.74;100.00;97338.38;4934899;28;101855;-60
2022/10/18 09:32:34;;;;;;;2.70;2.40;;;;;;;19.16;100.00;97341.31;4934720;28;105666;-61
2022/10/18 09:35:06;;;;;;;3.57;2.73;;;;;;;19.25;100.00;97328.88;4987913;28;105900;-60
2022/10/18 09:37:39;;;;;;;4.00;3.10;;;;;;;19.55;100.00;97334.81;5031459;28;103704;-61
2022/10/18 09:40:16;;;;;;;2.90;2.70;;;;;;;19.57;100.00;97326.44;5032382;28;102576;-61
2022/10/18 09:42:53;;;;;;;2.60;2.40;;;;;;;19.17;100.00;97324.03;5031448;28;101962;-61
2022/10/18 09:45:26;;;;;;;3.27;2.53;;;;;;;19.18;100.00;97331.06;5031266;28;105626;-61
2022/10/18 09:48:07;;;;;;;3.30;2.63;;;;;;;19.39;100.00;97327.13;5030450;28;105044;-61
2022/10/18 09:51:10;;;;;;;2.87;2.67;;;;;;;20.03;100.00;97324.88;5031202;28;102014;-60
2022/10/18 09:53:42;;;;;;;3.40;2.63;;;;;;;20.05;100.00;97328.09;5030876;28;105203;-61
2022/10/18 09:56:15;;;;;;;2.73;2.53;;;;;;;19.89;100.00;97323.97;5030572;28;105791;-61
2022/10/18 09:58:45;;;;;;;2.53;2.33;;;;;;;19.74;100.00;97324.13;5034591;28;101797;-62
2022/10/18 10:01:15;;;;;;;3.37;2.43;;;;;;;19.74;100.00;97308.72;5030399;28;106361;-61
2022/10/18 10:03:44;;;;;;;3.30;2.50;;;;;;;19.92;100.00;97323.38;5031181;28;101880;-61
2022/10/18 10:06:28;;;;;;;5.03;3.07;;;;;;;20.01;100.00;97318.97;5030964;28;106065;-61
2022/10/18 10:09:00;;;;;;;3.17;2.37;;;;;;;19.75;100.00;97323.00;5030382;28;104287;-61
2022/10/18 10:11:34;;;;;;;3.63;2.30;;;;;;;19.88;100.00;97320.44;5030704;28;101964;-61
2022/10/18 10:14:24;;;;;;;3.33;2.70;;;;;;;20.12;100.00;97317.78;5031333;28;106402;-61
2022/10/18 10:16:58;;;;;;;2.87;2.60;;;;;;;20.45;100.00;97311.41;5025370;28;106765;-62
2022/10/18 10:19:33;;;;;;;3.13;2.47;;;;;;;20.83;100.00;97313.06;5031314;28;101952;-62
2022/10/18 10:22:05;;;;;;;2.80;2.53;;;;;;;21.07;100.00;97311.91;5035391;28;102908;-62
2022/10/18 10:24:44;;;;;;;2.67;2.47;;;;;;;20.86;100.00;97313.25;5031056;28;101896;-62
2022/10/18 10:27:23;;;;;;;4.53;2.57;;;;;;;21.49;100.00;97310.94;5029669;27;105175;-62
2022/10/18 10:29:56;;;;;;;3.20;2.50;;;;;;;21.37;100.00;97311.38;5030361;28;105471;-62
2022/10/18 10:32:27;;;;;;;3.97;2.60;;;;;;;21.76;100.00;97311.00;5032491;28;101969;-62
2022/10/18 10:34:56;;;;;;;3.37;2.33;;;;;;;21.66;100.00;97305.75;5030840;28;105141;-61
2022/10/18 10:37:50;;;;;;;3.93;2.77;;;;;;;21.89;100.00;97297.50;5030281;28;103945;-61
2022/10/18 10:40:20;;;;;;;3.33;2.47;;;;;;;21.82;100.00;97297.09;5030785;28;101857;-62
2022/10/18 10:43:07;;;;;;;3.83;2.80;;;;;;;21.91;100.00;97297.19;5030907;28;105151;-62
2022/10/18 10:45:38;;;;;;;3.80;2.73;;;;;;;21.71;100.00;97289.44;5033154;28;105924;-61
2022/10/18 10:48:12;;;;;;;3.77;2.77;;;;;;;21.39;100.00;97292.97;5030655;28;104751;-61
2022/10/18 10:51:04;;;;;;;3.63;2.60;;;;;;;21.95;100.00;97290.06;5031566;27;102310;-61
2022/10/18 10:53:43;;;;;;;4.60;2.60;;;;;;;22.40;100.00;97283.72;5025713;28;102402;-62
2022/10/18 10:56:18;;;;;;;2.83;2.20;;;;;;;22.28;83.37;97280.75;5030578;28;104825;-61
2022/10/18 10:58:46;;;;;;;3.93;2.60;;;;;;;21.90;93.89;97282.84;5029965;28;105394;-62
2022/10/18 11:01:29;;;;;;;2.87;2.10;;;;;;;21.95;91.48;97277.31;5030264;28;101968;-62
2022/10/18 11:03:58;;;;;;;6.97;2.47;;;;;;;21.86;91.19;97278.34;5032053;28;102288;-62
2022/10/18 11:06:35;;;;;;;2.70;2.43;;;;;;;22.14;95.47;97269.09;5034512;28;102637;-62
2022/10/18 11:09:09;;;;;;;2.67;2.40;;;;;;;22.34;100.00;97263.25;5030179;28;105353;-63
2022/10/18 11:11:42;;;;;;;2.47;2.07;;;;;;;22.31;81.72;97258.44;5029369;28;105568;-62
2022/10/18 11:14:18;;;;;;;3.97;2.40;;;;;;;22.11;89.23;97258.84;5030105;28;101923;-62
2022/10/18 11:16:53;;;;;;;3.17;2.37;;;;;;;22.38;92.24;97258.81;5030242;28;104945;-63
2022/10/18 11:19:34;;;;;;;3.10;2.80;;;;;;;22.49;97.60;97258.31;5029249;28;106759;-62
2022/10/18 11:22:15;;;;;;;4.37;2.47;;;;;;;22.89;82.72;97253.91;5031479;28;101688;-62
2022/10/18 11:24:42;;;;;;;4.50;2.27;;;;;;;22.85;75.40;97253.72;5029976;28;103836;-62
2022/10/18 11:27:20;;;;;;;3.00;2.00;;;;;;;22.63;70.58;97256.41;5029259;28;105283;-62
2022/10/18 11:29:58;;;;;;;3.83;2.27;;;;;;;22.87;78.59;97247.97;5033321;28;101869;-62
2022/10/18 11:32:34;;;;;;;3.53;2.20;;;;;;;23.13;77.15;97243.53;5029096;28;105610;-62
2022/10/18 11:35:22;;;;;;;4.10;2.50;;;;;;;22.90;78.09;97239.22;5029836;28;101811;-62
2022/10/18 11:38:06;;;;;;;4.93;2.60;;;;;;;23.01;75.90;97237.84;5029371;27;103763;-62
2022/10/18 11:40:50;;;;;;;3.80;2.30;;;;;;;23.58;79.47;97237.75;5028679;28;105852;-62
2022/10/18 11:43:25;;;;;;;2.40;2.20;;;;;;;23.80;76.13;97240.41;5031120;28;101751;-62
2022/10/18 11:46:30;;;;;;;3.47;2.23;;;;;;;23.76;72.18;97238.63;5029720;28;105115;-62
2022/10/18 11:49:10;;;;;;;3.27;2.20;;;;;;;24.04;72.82;97231.88;5028854;28;105626;-62
2022/10/18 11:51:59;;;;;;;3.63;2.57;;;;;;;23.73;77.75;97231.91;5029478;28;101953;-62
2022/10/18 11:55:01;;;;;;;4.97;2.20;;;;;;;23.47;90.87;97227.47;5032150;28;105578;-62
2022/10/18 11:57:41;;;;;;;2.67;2.27;;;;;;;23.45;97.91;97219.66;5005172;28;102095;-62
2022/10/18 12:00:23;;;;;;;4.60;2.43;;;;;;;23.30;87.35;97217.31;5029356;28;103637;-63